^^
Mint Hill Weather Station Historical Data
 
Daily Summary for February 09, 2016 Units:  English    Metric   Both
« Previous Day
Next Day »
Daily Weekly Monthly Yearly Custom
  Current: High: Low: Average:
Temperature: 35.2 °F 38.0 °F 32.0 °F 35.2 °F
Dew Point: 27.1 °F 35.0 °F 26.1 °F 31 °F
Humidity: 72% 93% 72% 85%
Wind Speed: 3.8mph 5.5mph 0.0mph 1.7mph
Wind Gust: 5.8mph 9.2mph - -
WindWest - - West
Pressure: 29.70 in 29.70 in 29.64 in -
Precipitation: 0.00 in      
Historical Graphs
 
 
Tabular Data for February 09, 2016
Time Temperature Dew Point Pressure Wind Wind Speed Wind Gust Humidity Rainfall Rate (Hourly) solar Conditions
00:03 35.4 °F 33.3 °F 29.65 in NNW 1.0 mph 1.1 mph 92% 0.00 in 0.0 W/m2 OVC
00:08 35.5 °F 33.4 °F 29.65 in NNW 0.4 mph 1.1 mph 92% 0.00 in 0.0 W/m2 OVC
00:18 35.6 °F 33.8 °F 29.65 in Calm   1.0 mph 93% 0.00 in 0.0 W/m2 OVC
00:23 35.7 °F 33.9 °F 29.65 in NNW 0.1 mph 2.3 mph 93% 0.00 in 0.0 W/m2 OVC
00:38 36.1 °F 34.3 °F 29.65 in Calm   2.3 mph 93% 0.00 in 0.0 W/m2 OVC
00:43 36.2 °F 34.4 °F 29.64 in Calm   1.1 mph 93% 0.00 in 0.0 W/m2 OVC
00:48 36.3 °F 34.2 °F 29.64 in Calm     92% 0.00 in 0.0 W/m2 OVC
00:53 36.4 °F 34.3 °F 29.64 in Calm     92% 0.00 in 0.0 W/m2 OVC
00:58 36.4 °F 34.3 °F 29.64 in NNW 0.4 mph 1.0 mph 92% 0.00 in 0.0 W/m2 OVC
01:03 36.6 °F 34.5 °F 29.64 in Calm   1.1 mph 92% 0.00 in 0.0 W/m2 OVC
01:08 36.8 °F 34.7 °F 29.64 in Calm     92% 0.00 in 0.0 W/m2 OVC
01:13 36.8 °F 34.7 °F 29.64 in Calm     92% 0.00 in 0.0 W/m2 OVC
01:23 37.0 °F 34.9 °F 29.64 in NNW 0.3 mph 2.0 mph 92% 0.00 in 0.0 W/m2 OVC
01:29 37.1 °F 35.0 °F 29.64 in Calm   1.1 mph 92% 0.00 in 0.0 W/m2 OVC
01:39 37.2 °F 34.8 °F 29.64 in NNW 1.1 mph 1.1 mph 91% 0.00 in 0.0 W/m2 OVC
01:44 37.2 °F 34.8 °F 29.64 in NW 1.4 mph 2.3 mph 91% 0.00 in 0.0 W/m2 OVC
01:49 37.3 °F 34.9 °F 29.65 in NW 1.8 mph 2.3 mph 91% 0.00 in 0.0 W/m2 OVC
01:54 37.5 °F 34.8 °F 29.65 in West 1.7 mph 3.5 mph 90% 0.00 in 0.0 W/m2 OVC
01:59 37.8 °F 34.8 °F 29.65 in West 0.8 mph 3.5 mph 89% 0.00 in 0.0 W/m2 OVC
02:04 37.9 °F 34.9 °F 29.65 in Calm     89% 0.00 in 0.0 W/m2 OVC
02:09 38.0 °F 35.0 °F 29.65 in West 0.9 mph 2.3 mph 89% 0.00 in 0.0 W/m2 OVC
02:14 38.0 °F 34.8 °F 29.64 in West 0.1 mph 1.1 mph 88% 0.00 in 0.0 W/m2 OVC
02:19 38.0 °F 34.8 °F 29.64 in West 0.8 mph 2.3 mph 88% 0.00 in 0.0 W/m2 OVC
02:24 38.0 °F 34.5 °F 29.64 in West 0.1 mph 1.1 mph 87% 0.00 in 0.0 W/m2 OVC
02:29 38.0 °F 34.8 °F 29.64 in Calm   1.1 mph 88% 0.00 in 0.0 W/m2 OVC
02:34 38.0 °F 34.5 °F 29.64 in West 0.1 mph 1.1 mph 87% 0.00 in 0.0 W/m2 OVC
02:39 38.0 °F 34.5 °F 29.64 in Calm     87% 0.00 in 0.0 W/m2 OVC
02:44 38.0 °F 34.5 °F 29.64 in West 0.1 mph   87% 0.00 in 0.0 W/m2 OVC
02:49 38.0 °F 35.0 °F 29.64 in Calm     89% 0.00 in 0.0 W/m2 OVC
02:54 37.9 °F 34.9 °F 29.64 in Calm     89% 0.00 in 0.0 W/m2 OVC
02:59 37.9 °F 34.9 °F 29.64 in West 0.3 mph 2.0 mph 89% 0.00 in 0.0 W/m2 OVC
03:04 37.8 °F 34.8 °F 29.64 in West 0.3 mph 2.0 mph 89% 0.00 in 0.0 W/m2 OVC
03:09 37.8 °F 34.6 °F 29.64 in Calm     88% 0.00 in 0.0 W/m2 OVC
03:14 37.7 °F 34.5 °F 29.64 in Calm   1.1 mph 88% 0.00 in 0.0 W/m2 OVC
03:19 37.6 °F 34.4 °F 29.64 in West 0.6 mph 2.3 mph 88% 0.00 in 0.0 W/m2 OVC
03:24 37.4 °F 34.2 °F 29.64 in West 1.3 mph 2.3 mph 88% 0.00 in 0.0 W/m2 OVC
03:29 37.2 °F 33.7 °F 29.64 in West 2.1 mph 3.5 mph 87% 0.00 in 0.0 W/m2 OVC
03:34 37.0 °F 33.5 °F 29.64 in West 0.6 mph 2.3 mph 87% 0.00 in 0.0 W/m2 OVC
03:44 36.5 °F 33.0 °F 29.64 in WSW 2.7 mph 3.5 mph 87% 0.00 in 0.0 W/m2 OVC
03:54 36.1 °F 32.3 °F 29.64 in West 0.7 mph 3.5 mph 86% 0.00 in 0.0 W/m2 OVC
03:59 36.0 °F 32.2 °F 29.64 in WSW 0.1 mph 1.1 mph 86% 0.00 in 0.0 W/m2 OVC
04:04 35.8 °F 32.0 °F 29.64 in WSW 1.1 mph 2.3 mph 86% 0.00 in 0.0 W/m2 CLR
04:09 35.5 °F 32.0 °F 29.64 in WSW 1.2 mph 2.3 mph 87% 0.00 in 0.0 W/m2 CLR
04:14 35.4 °F 31.9 °F 29.64 in WSW 1.6 mph 4.0 mph 87% 0.00 in 0.0 W/m2 CLR
04:19 35.2 °F 31.4 °F 29.64 in WSW 0.7 mph 2.3 mph 86% 0.00 in 0.0 W/m2 CLR
04:24 35.0 °F 31.2 °F 29.64 in WSW 2.2 mph 3.5 mph 86% 0.00 in 0.0 W/m2 CLR
04:29 34.8 °F 31.3 °F 29.64 in WSW 1.5 mph 3.5 mph 87% 0.00 in 0.0 W/m2 CLR
04:34 34.7 °F 31.2 °F 29.64 in WNW 1.8 mph 3.5 mph 87% 0.00 in 0.0 W/m2 CLR
04:39 34.6 °F 31.1 °F 29.64 in Calm   1.1 mph 87% 0.00 in 0.0 W/m2 CLR
04:44 34.5 °F 31.0 °F 29.65 in West 0.5 mph 3.5 mph 87% 0.00 in 0.0 W/m2 CLR
04:49 34.4 °F 30.9 °F 29.64 in SW 0.4 mph 1.1 mph 87% 0.00 in 0.0 W/m2 CLR
04:54 34.3 °F 30.5 °F 29.64 in WSW 2.8 mph 5.8 mph 86% 0.00 in 0.0 W/m2 CLR
04:59 34.2 °F 30.4 °F 29.65 in West 3.0 mph 5.8 mph 86% 0.00 in 0.0 W/m2 CLR
05:04 34.2 °F 30.4 °F 29.65 in WNW 1.2 mph 2.3 mph 86% 0.00 in 0.0 W/m2 SCT
05:09 34.2 °F 30.2 °F 29.65 in WNW 5.4 mph 6.0 mph 85% 0.00 in 0.0 W/m2 SCT
05:14 34.3 °F 29.7 °F 29.65 in West 4.9 mph 9.2 mph 83% 0.00 in 0.0 W/m2 SCT
05:19 34.6 °F 29.7 °F 29.65 in SW 1.1 mph 3.5 mph 82% 0.00 in 0.0 W/m2 SCT
05:24 34.6 °F 29.4 °F 29.65 in NW 2.6 mph 5.8 mph 81% 0.00 in 0.0 W/m2 SCT
05:29 34.6 °F 29.4 °F 29.65 in WSW 3.0 mph 3.5 mph 81% 0.00 in 0.0 W/m2 SCT
05:34 34.7 °F 29.2 °F 29.66 in West 1.4 mph 3.5 mph 80% 0.00 in 0.0 W/m2 SCT
05:44 34.7 °F 28.9 °F 29.65 in WSW 3.2 mph 6.9 mph 79% 0.00 in 0.0 W/m2 SCT
05:49 34.6 °F 28.8 °F 29.65 in NW 1.9 mph 6.9 mph 79% 0.00 in 0.0 W/m2 SCT
05:54 34.4 °F 28.6 °F 29.66 in WNW 3.0 mph 5.0 mph 79% 0.00 in 0.0 W/m2 SCT
05:59 34.3 °F 28.5 °F 29.66 in WNW 5.5 mph 6.9 mph 79% 0.00 in 0.0 W/m2 SCT
06:09 34.3 °F 28.5 °F 29.66 in WSW 1.8 mph 3.5 mph 79% 0.00 in 0.0 W/m2 OVC
06:14 34.2 °F 28.4 °F 29.67 in West 1.0 mph 3.5 mph 79% 0.00 in 0.0 W/m2 OVC
06:19 34.0 °F 28.2 °F 29.67 in West 2.7 mph 4.6 mph 79% 0.00 in 0.0 W/m2 OVC
06:24 33.9 °F 28.1 °F 29.67 in WNW 4.2 mph 4.2 mph 79% 0.00 in 0.0 W/m2 OVC
06:29 33.7 °F 27.9 °F 29.67 in West 0.4 mph 4.6 mph 79% 0.00 in 0.0 W/m2 OVC
06:34 33.5 °F 27.7 °F 29.67 in WNW 1.7 mph 4.0 mph 79% 0.00 in 0.0 W/m2 OVC
06:39 33.3 °F 27.5 °F 29.67 in WNW 2.7 mph 3.5 mph 79% 0.00 in 0.0 W/m2 OVC
06:44 33.1 °F 27.3 °F 29.67 in WSW 2.0 mph 4.6 mph 79% 0.00 in 0.0 W/m2 OVC
06:50 32.9 °F 27.4 °F 29.67 in West 2.7 mph 3.5 mph 80% 0.00 in 0.0 W/m2 OVC
06:55 32.8 °F 27.3 °F 29.68 in WSW 3.5 mph 6.0 mph 80% 0.00 in 0.0 W/m2 OVC
07:00 32.6 °F 27.1 °F 29.68 in West 3.1 mph 4.6 mph 80% 0.00 in 0.0 W/m2 OVC
07:05 32.5 °F 27.0 °F 29.68 in WSW 4.1 mph 6.9 mph 80% 0.00 in 0.0 W/m2 CLR
07:10 32.4 °F 26.9 °F 29.68 in West 2.6 mph 3.5 mph 80% 0.00 in 0.0 W/m2 CLR
07:15 32.3 °F 26.8 °F 29.68 in WSW 4.6 mph 6.9 mph 80% 0.00 in 0.0 W/m2 CLR
07:20 32.2 °F 26.7 °F 29.68 in West 1.9 mph 3.5 mph 80% 0.00 in 6.0 W/m2 CLR
07:30 32.0 °F 26.5 °F 29.69 in WNW 3.0 mph 4.6 mph 80% 0.00 in 10.8 W/m2 CLR
07:35 32.1 °F 26.3 °F 29.69 in WNW 2.4 mph 4.0 mph 79% 0.00 in 14.4 W/m2 CLR
07:40 32.1 °F 26.3 °F 29.69 in West 2.1 mph 3.5 mph 79% 0.00 in 14.4 W/m2 CLR
07:45 32.1 °F 26.3 °F 29.69 in West 3.4 mph 5.8 mph 79% 0.00 in 19.2 W/m2 CLR
07:50 32.2 °F 26.1 °F 29.69 in West 3.7 mph 5.8 mph 78% 0.00 in 19.2 W/m2 CLR
07:55 32.4 °F 26.3 °F 29.69 in West 3.5 mph 6.9 mph 78% 0.00 in 22.8 W/m2 CLR
08:00 32.5 °F 26.1 °F 29.69 in WSW 4.0 mph 6.0 mph 77% 0.00 in 31.2 W/m2 CLR
08:05 32.6 °F 26.2 °F 29.70 in West 1.7 mph 3.5 mph 77% 0.00 in 52.8 W/m2 FEW
08:10 32.8 °F 26.4 °F 29.70 in WSW 3.1 mph 4.6 mph 77% 0.00 in 103.2 W/m2 FEW
08:15 33.0 °F 26.6 °F 29.70 in WNW 2.8 mph 4.6 mph 77% 0.00 in 86.4 W/m2 FEW
08:20 33.4 °F 26.6 °F 29.70 in SW 2.3 mph 8.0 mph 76% 0.00 in 56.4 W/m2 FEW
08:25 33.8 °F 26.7 °F 29.70 in WNW 4.3 mph 5.8 mph 75% 0.00 in 122.4 W/m2 FEW
08:30 34.1 °F 27.0 °F 29.70 in NW 2.6 mph 5.8 mph 75% 0.00 in 145.2 W/m2 FEW
08:35 34.7 °F 27.3 °F 29.70 in WNW 4.8 mph 6.9 mph 74% 0.00 in 213.6 W/m2 FEW
08:40 35.2 °F 27.1 °F 29.70 in West 3.8 mph 5.8 mph 72% 0.00 in 141.6 W/m2 FEW
Mint Hill, North Carolina, USA
Compliments of Weather Underground